Time;durP1;ratioP1;P1;durP2;ratioP2;P2;SDS_P1;SDS_P2;PMS_P1;PMS_P2;Temp;Humidity;BMP_temperature;BMP_pressure;BME280_temperature;BME280_humidity;BME280_pressure;Samples;Min_cycle;Max_cycle;Signal;HPM_P1;HPM_P2
2021/04/21 00:00:14;;;;;;;19.60;17.03;;;5.60;99.90;;;;;;5090239;28;20202;-78
2021/04/21 00:02:42;;;;;;;19.17;16.47;;;5.60;99.90;;;;;;5085630;28;20191;-78
2021/04/21 00:05:10;;;;;;;19.90;17.80;;;5.50;99.90;;;;;;5082472;28;20233;-78
2021/04/21 00:07:37;;;;;;;19.97;17.73;;;5.50;99.90;;;;;;5085933;28;20191;-78
2021/04/21 00:10:07;;;;;;;19.63;17.63;;;5.50;99.90;;;;;;5087690;28;20202;-78
2021/04/21 00:12:35;;;;;;;19.63;17.47;;;5.50;99.90;;;;;;5078719;28;20201;-78
2021/04/21 00:15:01;;;;;;;20.67;18.57;;;5.40;99.90;;;;;;5079952;28;20278;-78
2021/04/21 00:17:28;;;;;;;20.27;17.80;;;5.40;99.90;;;;;;5084893;28;20226;-78
2021/04/21 00:19:57;;;;;;;21.40;17.70;;;5.40;99.90;;;;;;5091108;28;20251;-78
2021/04/21 00:22:28;;;;;;;22.70;18.17;;;5.40;99.90;;;;;;5088553;28;20206;-78
2021/04/21 00:24:55;;;;;;;20.53;17.40;;;5.30;99.90;;;;;;5098637;28;20231;-79
2021/04/21 00:27:25;;;;;;;18.37;16.37;;;5.20;99.90;;;;;;5083517;28;20190;-78
2021/04/21 00:29:57;;;;;;;18.67;16.43;;;5.20;99.90;;;;;;5084880;28;20194;-78
2021/04/21 00:32:26;;;;;;;18.50;16.60;;;5.20;99.90;;;;;;5076399;28;20178;-78
2021/04/21 00:34:55;;;;;;;20.23;17.97;;;5.10;99.90;;;;;;5094239;28;20305;-78
2021/04/21 00:37:25;;;;;;;21.90;18.33;;;5.10;99.90;;;;;;5080192;28;20230;-78
2021/04/21 00:39:52;;;;;;;19.37;17.30;;;5.10;99.90;;;;;;5086367;28;20203;-78
2021/04/21 00:42:32;;;;;;;19.17;16.60;;;5.10;99.90;;;;;;5080540;28;20585;-78
2021/04/21 00:45:04;;;;;;;19.40;16.83;;;5.10;99.90;;;;;;5082176;28;20230;-78
2021/04/21 00:47:38;;;;;;;20.93;17.77;;;5.10;99.90;;;;;;5083397;28;20225;-78
2021/04/21 00:50:10;;;;;;;20.77;17.83;;;5.00;99.90;;;;;;5078988;28;20250;-78
2021/04/21 00:52:46;;;;;;;20.60;18.50;;;5.00;99.90;;;;;;5075052;28;20209;-79
2021/04/21 00:55:17;;;;;;;23.20;20.67;;;5.00;99.90;;;;;;5086266;28;20600;-78
2021/04/21 00:57:52;;;;;;;21.33;18.17;;;4.90;99.90;;;;;;5077840;28;20210;-78
2021/04/21 01:00:23;;;;;;;21.40;19.00;;;4.90;99.90;;;;;;5081027;28;20451;-78
2021/04/21 01:03:02;;;;;;;20.07;17.80;;;4.90;99.90;;;;;;5086094;28;20620;-78
2021/04/21 01:05:34;;;;;;;18.57;16.63;;;5.00;99.90;;;;;;5095669;28;20271;-78
2021/04/21 01:08:07;;;;;;;19.40;17.40;;;4.90;99.90;;;;;;5089799;28;20194;-78
2021/04/21 01:10:37;;;;;;;18.87;16.90;;;4.90;99.90;;;;;;5092024;28;20246;-78
2021/04/21 01:13:04;;;;;;;19.73;17.03;;;4.90;99.90;;;;;;5086142;28;20464;-78
2021/04/21 01:15:33;;;;;;;19.33;17.33;;;4.90;99.90;;;;;;5086841;28;20297;-78
2021/04/21 01:18:01;;;;;;;20.40;17.97;;;4.90;99.90;;;;;;5082574;28;20567;-78
2021/04/21 01:20:31;;;;;;;19.63;17.53;;;4.90;99.90;;;;;;5082498;28;20240;-78
2021/04/21 01:23:26;;;;;;;19.97;17.87;;;4.90;99.90;;;;;;5076870;28;20456;-78
2021/04/21 01:26:02;;;;;;;19.90;17.60;;;4.90;99.90;;;;;;5053419;28;20218;-77
2021/04/21 01:28:31;;;;;;;19.53;17.30;;;4.80;99.90;;;;;;5086482;28;20202;-78
2021/04/21 01:30:58;;;;;;;19.00;17.03;;;4.80;99.90;;;;;;5074296;28;20439;-78
2021/04/21 01:33:27;;;;;;;19.67;17.67;;;4.80;99.90;;;;;;5083182;28;20190;-78
2021/04/21 01:35:58;;;;;;;20.93;18.83;;;4.70;99.90;;;;;;5084804;28;20428;-77
2021/04/21 01:38:25;;;;;;;19.93;17.83;;;4.70;99.90;;;;;;5086841;28;20206;-78
2021/04/21 01:40:55;;;;;;;18.83;16.93;;;4.70;99.90;;;;;;5085274;28;20498;-78
2021/04/21 01:43:27;;;;;;;20.27;18.17;;;4.70;99.90;;;;;;5084695;28;20456;-78
2021/04/21 01:45:57;;;;;;;20.07;18.07;;;4.70;99.90;;;;;;5092669;28;20448;-78
2021/04/21 01:48:26;;;;;;;20.07;18.07;;;4.60;99.90;;;;;;5085227;28;20467;-78
2021/04/21 01:50:53;;;;;;;19.13;17.13;;;4.60;99.90;;;;;;5102431;28;20832;-78
2021/04/21 01:53:27;;;;;;;19.43;17.47;;;4.60;99.90;;;;;;5087393;28;20636;-78
2021/04/21 01:56:03;;;;;;;21.07;18.93;;;4.60;99.90;;;;;;5076228;28;20671;-78
2021/04/21 01:58:54;;;;;;;19.67;17.77;;;4.60;99.90;;;;;;5084724;28;20268;-78
2021/04/21 02:01:45;;;;;;;18.60;16.70;;;4.50;99.90;;;;;;5076721;28;20464;-78
2021/04/21 02:04:27;;;;;;;20.63;18.53;;;4.50;99.90;;;;;;5087512;28;20218;-77
2021/04/21 02:07:01;;;;;;;20.40;18.40;;;4.50;99.90;;;;;;5082747;28;20445;-78
2021/04/21 02:10:05;;;;;;;20.80;18.70;;;4.50;99.90;;;;;;5087752;28;20963;-79
2021/04/21 02:12:48;;;;;;;21.97;18.87;;;4.50;99.90;;;;;;5082621;28;20913;-78
2021/04/21 02:15:19;;;;;;;20.87;18.73;;;4.50;99.90;;;;;;5093469;28;20468;-78
2021/04/21 02:17:52;;;;;;;22.17;20.00;;;4.50;99.90;;;;;;5086338;28;20826;-78
2021/04/21 02:20:28;;;;;;;20.87;18.80;;;4.50;99.90;;;;;;5088769;28;20429;-78
2021/04/21 02:22:59;;;;;;;20.27;18.07;;;4.60;99.90;;;;;;5085001;28;20440;-78
2021/04/21 02:25:35;;;;;;;20.07;18.07;;;4.60;99.90;;;;;;5085629;28;20990;-77
2021/04/21 02:28:09;;;;;;;21.67;19.50;;;4.60;99.90;;;;;;5075292;28;21014;-78
2021/04/21 02:30:41;;;;;;;21.57;19.20;;;4.60;99.90;;;;;;5074324;28;20449;-77
2021/04/21 02:33:20;;;;;;;20.57;18.47;;;4.50;99.90;;;;;;5091240;28;20436;-78
2021/04/21 02:35:49;;;;;;;23.30;20.97;;;4.50;99.90;;;;;;5084445;28;20818;-78
2021/04/21 02:38:29;;;;;;;21.23;19.03;;;4.40;99.90;;;;;;5080713;28;20514;-78
2021/04/21 02:41:10;;;;;;;23.33;20.93;;;4.40;99.90;;;;;;5073746;28;20451;-80
2021/04/21 02:44:01;;;;;;;22.87;19.63;;;4.30;99.90;;;;;;5088364;28;20443;-81
2021/04/21 02:46:34;;;;;;;22.50;20.10;;;4.30;99.90;;;;;;5083519;28;20437;-80
2021/04/21 02:49:35;;;;;;;22.50;19.93;;;4.30;99.90;;;;;;5081049;28;20428;-79
2021/04/21 02:52:06;;;;;;;22.97;20.57;;;4.20;99.90;;;;;;5080376;28;20966;-81
2021/04/21 02:54:47;;;;;;;24.37;21.20;;;4.20;99.90;;;;;;5083381;28;20505;-80
2021/04/21 02:57:20;;;;;;;26.00;21.77;;;4.20;99.90;;;;;;5082833;28;20222;-79
2021/04/21 02:59:52;;;;;;;21.03;18.83;;;4.10;99.90;;;;;;5082335;28;20808;-79
2021/04/21 03:02:26;;;;;;;23.03;20.67;;;4.10;99.90;;;;;;5077877;28;20463;-79
2021/04/21 03:05:01;;;;;;;20.60;18.43;;;4.10;99.90;;;;;;5080750;28;20992;-79
2021/04/21 03:07:32;;;;;;;23.67;20.97;;;4.00;99.90;;;;;;5081218;28;20448;-79
2021/04/21 03:10:03;;;;;;;24.70;21.53;;;3.90;99.90;;;;;;5081718;28;20472;-79
2021/04/21 03:12:32;;;;;;;29.23;22.50;;;3.90;99.90;;;;;;5081335;28;20841;-79
2021/04/21 03:15:04;;;;;;;25.77;21.27;;;3.90;99.90;;;;;;5083214;28;20467;-79
2021/04/21 03:17:31;;;;;;;23.00;20.00;;;3.90;99.90;;;;;;5080414;28;20561;-79
2021/04/21 03:20:04;;;;;;;22.53;19.50;;;3.80;99.90;;;;;;5084020;28;20455;-79
2021/04/21 03:22:33;;;;;;;22.77;20.33;;;3.80;99.90;;;;;;5089109;28;20443;-78
2021/04/21 03:25:04;;;;;;;23.53;20.03;;;3.80;99.90;;;;;;5083377;28;20473;-79
2021/04/21 03:27:33;;;;;;;21.27;19.07;;;3.70;99.90;;;;;;5089299;28;20446;-79
2021/04/21 03:30:03;;;;;;;20.80;18.60;;;3.70;99.90;;;;;;5082293;28;20493;-79
2021/04/21 03:32:35;;;;;;;21.47;19.13;;;3.70;99.90;;;;;;5077603;28;20862;-79
2021/04/21 03:35:04;;;;;;;22.07;19.77;;;3.70;99.90;;;;;;5080316;28;20456;-79
2021/04/21 03:37:37;;;;;;;23.67;20.10;;;3.70;99.90;;;;;;5085007;28;20467;-79
2021/04/21 03:40:05;;;;;;;24.80;20.00;;;3.60;99.90;;;;;;5084723;28;20435;-79
2021/04/21 03:42:32;;;;;;;21.53;18.57;;;3.60;99.90;;;;;;5094608;28;20439;-80
2021/04/21 03:45:00;;;;;;;25.23;22.03;;;3.60;99.90;;;;;;5085805;28;20977;-79
2021/04/21 03:47:27;;;;;;;23.50;20.30;;;3.60;99.90;;;;;;5102139;28;20453;-78
2021/04/21 03:49:56;;;;;;;23.67;21.17;;;3.50;99.90;;;;;;5081678;28;20463;-79
2021/04/21 03:52:25;;;;;;;23.67;20.23;;;3.50;99.90;;;;;;5097959;28;20441;-80
2021/04/21 03:54:52;;;;;;;21.60;18.73;;;3.40;99.90;;;;;;5090022;28;20458;-78
2021/04/21 03:57:20;;;;;;;22.23;19.03;;;3.40;99.90;;;;;;5075055;28;20479;-78
2021/04/21 03:59:49;;;;;;;21.17;18.87;;;3.40;99.90;;;;;;5087420;28;20442;-78
2021/04/21 04:02:15;;;;;;;22.47;20.07;;;3.30;99.90;;;;;;5080214;28;20446;-78
2021/04/21 04:04:47;;;;;;;22.93;19.63;;;3.40;99.90;;;;;;5113036;28;20512;-79
2021/04/21 04:07:16;;;;;;;25.90;22.47;;;3.40;99.90;;;;;;5097434;28;20442;-79
2021/04/21 04:09:48;;;;;;;27.10;21.40;;;3.40;99.90;;;;;;5121790;28;21192;-79
2021/04/21 04:12:16;;;;;;;24.20;20.77;;;3.40;99.90;;;;;;5092719;28;20453;-80
2021/04/21 04:14:42;;;;;;;23.20;20.77;;;3.40;99.90;;;;;;5077305;28;20510;-79
2021/04/21 04:17:10;;;;;;;24.13;21.63;;;3.40;99.90;;;;;;5080771;28;20465;-77
2021/04/21 04:19:41;;;;;;;21.80;19.53;;;3.30;99.90;;;;;;5091203;28;20462;-78
2021/04/21 04:22:09;;;;;;;22.83;19.83;;;3.30;99.90;;;;;;5085272;28;20452;-79
2021/04/21 04:24:41;;;;;;;26.03;20.60;;;3.30;99.90;;;;;;5080659;28;20474;-79
2021/04/21 04:27:14;;;;;;;24.87;20.80;;;3.30;99.90;;;;;;5093540;28;20955;-80
2021/04/21 04:29:43;;;;;;;24.20;21.60;;;3.40;99.90;;;;;;5087941;28;20457;-80
2021/04/21 04:32:14;;;;;;;24.23;21.63;;;3.40;99.90;;;;;;5082748;28;20440;-79
2021/04/21 04:34:43;;;;;;;23.00;20.53;;;3.40;99.90;;;;;;5074720;28;20681;-79
2021/04/21 04:37:12;;;;;;;24.80;19.87;;;3.40;99.90;;;;;;5085312;28;20992;-79
2021/04/21 04:39:38;;;;;;;25.13;20.17;;;3.40;99.90;;;;;;5077653;28;20433;-80
2021/04/21 04:42:06;;;;;;;23.10;20.40;;;3.40;99.90;;;;;;5088042;28;20493;-80
2021/04/21 04:44:35;;;;;;;25.07;21.13;;;3.40;99.90;;;;;;5089606;28;20475;-79
2021/04/21 04:47:05;;;;;;;28.53;22.93;;;3.50;99.90;;;;;;5084407;28;20446;-78
2021/04/21 04:49:38;;;;;;;29.10;24.13;;;3.60;99.90;;;;;;5091528;28;20436;-81
2021/04/21 04:52:07;;;;;;;27.23;23.10;;;3.70;99.90;;;;;;5077109;28;20456;-80
2021/04/21 04:54:35;;;;;;;23.30;19.20;;;3.80;99.90;;;;;;5080523;28;20463;-79
2021/04/21 04:57:03;;;;;;;28.07;21.73;;;3.80;99.90;;;;;;5082563;28;20502;-80
2021/04/21 04:59:31;;;;;;;21.90;16.63;;;3.90;99.90;;;;;;5086097;28;20474;-80
2021/04/21 05:01:59;;;;;;;21.40;17.43;;;4.00;99.90;;;;;;5092980;28;20527;-79
2021/04/21 05:04:33;;;;;;;22.43;16.63;;;4.10;99.90;;;;;;5080751;28;20472;-77
2021/04/21 05:07:04;;;;;;;22.53;16.57;;;4.20;99.90;;;;;;5087192;28;20426;-79
2021/04/21 05:09:34;;;;;;;19.93;15.73;;;4.40;99.90;;;;;;5094144;28;20448;-79
2021/04/21 05:12:02;;;;;;;23.67;21.13;;;4.60;99.90;;;;;;5096681;28;20473;-79
2021/04/21 05:14:31;;;;;;;27.77;20.37;;;4.80;99.90;;;;;;5094067;28;20229;-79
2021/04/21 05:17:33;;;;;;;23.00;16.20;;;4.90;99.90;;;;;;5093402;28;20468;-80
2021/04/21 05:20:44;;;;;;;22.90;16.23;;;5.10;99.90;;;;;;5112359;28;20205;-80
2021/04/21 05:23:44;;;;;;;23.30;15.33;;;5.20;99.90;;;;;;5090582;28;20204;-80
2021/04/21 05:26:35;;;;;;;28.23;22.07;;;5.40;99.90;;;;;;5065409;28;20205;-80
2021/04/21 05:29:27;;;;;;;26.50;20.50;;;5.90;99.90;;;;;;5101217;28;20196;-80
2021/04/21 05:32:35;;;;;;;26.80;20.07;;;6.30;99.90;;;;;;5095307;28;20199;-80
2021/04/21 05:35:56;;;;;;;25.70;20.20;;;6.80;99.90;;;;;;5094874;28;20218;-80
2021/04/21 05:39:00;;;;;;;22.13;18.27;;;7.20;99.90;;;;;;5099433;28;20219;-80
2021/04/21 05:41:59;;;;;;;21.63;19.43;;;7.50;99.90;;;;;;5095517;28;20190;-80
2021/04/21 05:45:10;;;;;;;22.17;17.63;;;7.80;99.90;;;;;;5079206;28;20253;-80
2021/04/21 05:47:55;;;;;;;19.73;15.93;;;8.00;99.90;;;;;;5083788;28;20246;-82
2021/04/21 05:50:55;;;;;;;19.67;17.37;;;8.20;99.90;;;;;;5081445;28;20703;-82
2021/04/21 05:53:49;;;;;;;18.50;16.13;;;8.30;99.90;;;;;;5094101;28;20291;-81
2021/04/21 05:57:08;;;;;;;20.83;18.63;;;8.30;99.90;;;;;;5094029;28;20216;-81
2021/04/21 06:00:03;;;;;;;20.50;18.33;;;8.40;99.90;;;;;;5047978;28;20241;-82
2021/04/21 06:02:35;;;;;;;20.80;16.30;;;8.40;99.90;;;;;;5087272;28;20205;-79
2021/04/21 06:05:08;;;;;;;18.83;16.33;;;8.60;99.90;;;;;;5090905;28;20255;-79
2021/04/21 06:07:35;;;;;;;17.97;16.07;;;8.70;99.90;;;;;;5091115;28;20686;-79
2021/04/21 06:10:19;;;;;;;18.87;16.93;;;8.70;99.90;;;;;;5079330;28;20195;-81
2021/04/21 06:12:45;;;;;;;18.60;16.57;;;8.70;99.90;;;;;;5086440;28;20195;-80
2021/04/21 06:15:14;;;;;;;21.87;17.37;;;8.90;99.90;;;;;;5084548;28;20218;-82
2021/04/21 06:17:43;;;;;;;18.90;15.47;;;9.00;99.90;;;;;;5095821;28;20210;-81
2021/04/21 06:20:11;;;;;;;18.03;16.13;;;9.10;99.90;;;;;;5081646;28;20197;-82
2021/04/21 06:22:37;;;;;;;17.93;16.00;;;9.20;99.90;;;;;;5084917;28;20202;-81
2021/04/21 06:25:15;;;;;;;18.17;16.37;;;9.60;99.90;;;;;;5078378;28;20614;-80
2021/04/21 06:27:42;;;;;;;19.17;17.27;;;9.80;99.90;;;;;;5078039;28;20194;-79
2021/04/21 06:30:10;;;;;;;19.50;16.07;;;10.00;99.90;;;;;;5082452;28;20669;-79
2021/04/21 06:32:36;;;;;;;19.67;17.60;;;10.20;99.90;;;;;;5088801;28;20202;-79
2021/04/21 06:35:04;;;;;;;17.00;15.20;;;10.30;99.90;;;;;;5084689;28;20221;-80
2021/04/21 06:37:31;;;;;;;18.37;16.13;;;10.40;99.90;;;;;;5089756;28;20228;-80
2021/04/21 06:40:01;;;;;;;18.20;16.30;;;10.50;99.90;;;;;;5085672;28;20198;-82
2021/04/21 06:42:28;;;;;;;18.63;16.70;;;10.40;99.90;;;;;;5084938;28;20202;-79
2021/04/21 06:44:56;;;;;;;18.60;16.10;;;10.40;99.90;;;;;;5075437;28;20222;-82
2021/04/21 06:47:24;;;;;;;17.80;15.80;;;10.50;99.90;;;;;;5081681;28;20702;-81
2021/04/21 06:49:58;;;;;;;16.77;14.53;;;10.70;99.90;;;;;;5085094;28;20198;-78
2021/04/21 06:52:33;;;;;;;17.10;14.77;;;10.80;99.90;;;;;;5087239;28;20315;-79
2021/04/21 06:55:02;;;;;;;15.07;13.47;;;11.00;99.90;;;;;;5083155;28;20292;-78
2021/04/21 06:57:30;;;;;;;18.83;15.63;;;11.20;99.90;;;;;;5090483;28;20554;-78
2021/04/21 07:00:11;;;;;;;19.73;15.97;;;11.30;99.90;;;;;;5084254;28;20206;-78
2021/04/21 07:02:41;;;;;;;18.87;14.87;;;11.50;99.90;;;;;;5087537;28;20210;-78
2021/04/21 07:05:26;;;;;;;16.30;14.63;;;11.50;99.90;;;;;;5078892;28;20559;-78
2021/04/21 07:08:06;;;;;;;17.43;15.53;;;11.70;99.90;;;;;;5079306;28;20201;-78
2021/04/21 07:10:34;;;;;;;17.20;15.40;;;11.80;99.90;;;;;;5105102;28;20219;-78
2021/04/21 07:13:03;;;;;;;18.67;16.77;;;12.00;99.90;;;;;;5077899;28;20618;-78
2021/04/21 07:15:34;;;;;;;17.57;15.87;;;12.10;99.90;;;;;;5080174;28;20226;-76
2021/04/21 07:18:01;;;;;;;17.97;16.10;;;12.20;99.90;;;;;;5079041;28;20686;-77
2021/04/21 07:20:28;;;;;;;20.97;18.77;;;12.50;99.90;;;;;;5078593;28;20211;-76
2021/04/21 07:22:56;;;;;;;20.00;17.90;;;12.60;99.90;;;;;;5076679;28;21107;-77
2021/04/21 07:25:22;;;;;;;18.77;16.87;;;12.90;99.90;;;;;;5080862;28;20571;-77
2021/04/21 07:27:54;;;;;;;18.63;16.70;;;13.30;99.90;;;;;;5090211;28;20228;-76
2021/04/21 07:30:26;;;;;;;20.37;18.27;;;13.70;99.90;;;;;;5089932;28;20227;-78
2021/04/21 07:32:53;;;;;;;15.97;13.83;;;14.00;99.90;;;;;;5088296;28;20547;-79
2021/04/21 07:35:22;;;;;;;18.60;14.90;;;14.30;99.90;;;;;;5087919;28;20222;-78
2021/04/21 07:37:50;;;;;;;17.37;15.60;;;14.50;99.90;;;;;;5082010;28;20229;-78
2021/04/21 07:40:21;;;;;;;17.23;15.37;;;14.90;99.90;;;;;;5094871;28;20228;-79
2021/04/21 07:42:47;;;;;;;20.73;18.63;;;15.20;99.90;;;;;;5100735;28;20193;-79
2021/04/21 07:45:17;;;;;;;19.43;17.60;;;15.60;99.90;;;;;;5082720;28;20222;-79
2021/04/21 07:47:44;;;;;;;19.20;17.27;;;15.60;99.90;;;;;;5088544;28;20678;-79
2021/04/21 07:50:11;;;;;;;19.33;17.50;;;15.90;99.90;;;;;;5082308;28;20276;-79
2021/04/21 07:52:37;;;;;;;18.70;17.00;;;16.00;99.90;;;;;;5089962;28;20199;-79
2021/04/21 07:55:10;;;;;;;19.27;17.50;;;16.10;99.90;;;;;;5078434;28;20210;-82
2021/04/21 07:57:45;;;;;;;19.50;17.53;;;16.40;99.90;;;;;;5090271;28;20284;-81
2021/04/21 08:00:24;;;;;;;20.10;18.10;;;16.40;99.90;;;;;;5090774;28;20642;-80
2021/04/21 08:02:55;;;;;;;19.10;17.20;;;16.70;99.90;;;;;;5083055;28;20245;-81
2021/04/21 08:05:22;;;;;;;18.53;16.80;;;16.70;99.90;;;;;;5108168;28;20616;-81
2021/04/21 08:07:54;;;;;;;19.10;17.37;;;17.00;99.90;;;;;;5087337;28;20286;-81
2021/04/21 08:10:36;;;;;;;19.87;17.97;;;17.30;99.90;;;;;;5087658;28;20243;-81
2021/04/21 08:13:08;;;;;;;21.03;18.93;;;17.40;99.90;;;;;;5085054;28;20211;-80
2021/04/21 08:15:37;;;;;;;19.43;17.53;;;17.50;99.90;;;;;;5082679;28;20220;-80
2021/04/21 08:18:10;;;;;;;19.47;17.67;;;17.70;99.90;;;;;;5081334;28;20303;-76
2021/04/21 08:20:42;;;;;;;18.77;16.70;;;17.80;99.90;;;;;;5091295;28;20192;-76
2021/04/21 08:23:10;;;;;;;18.77;16.23;;;18.00;99.90;;;;;;5088395;28;20809;-77
2021/04/21 08:25:38;;;;;;;19.60;17.63;;;18.30;99.90;;;;;;5093535;28;20222;-78
2021/04/21 08:28:05;;;;;;;19.50;17.67;;;18.20;99.90;;;;;;5082256;28;20692;-78
2021/04/21 08:30:32;;;;;;;19.30;17.50;;;18.20;99.90;;;;;;5104325;28;20201;-80
2021/04/21 08:32:58;;;;;;;19.27;17.27;;;18.40;99.90;;;;;;5090139;28;20197;-80
2021/04/21 08:35:25;;;;;;;18.13;16.52;;;18.60;99.90;;;;;;5081052;28;20540;-79
2021/04/21 08:37:52;;;;;;;18.87;17.17;;;18.70;99.90;;;;;;5081217;28;20209;-80
2021/04/21 08:40:21;;;;;;;18.83;16.93;;;18.80;99.90;;;;;;5089671;28;20211;-80
2021/04/21 08:42:55;;;;;;;20.30;18.30;;;19.10;99.90;;;;;;5077161;28;20285;-80
2021/04/21 08:45:22;;;;;;;18.10;16.37;;;19.30;99.90;;;;;;5083839;22;20684;-82
2021/04/21 08:47:49;;;;;;;20.63;18.63;;;19.30;99.90;;;;;;5052290;28;20214;-83
2021/04/21 08:50:16;;;;;;;21.00;18.80;;;19.40;99.90;;;;;;5051799;28;20195;-82
2021/04/21 08:52:48;;;;;;;19.90;18.00;;;19.10;99.90;;;;;;5050158;28;20192;-82
2021/04/21 08:55:16;;;;;;;18.60;16.70;;;19.00;99.90;;;;;;5054460;28;20223;-82
2021/04/21 08:57:44;;;;;;;17.50;15.80;;;19.40;99.90;;;;;;5054913;28;20879;-82
2021/04/21 09:00:13;;;;;;;19.60;17.60;;;19.50;99.90;;;;;;5057026;28;20201;-83
2021/04/21 09:02:40;;;;;;;18.20;16.43;;;19.60;99.90;;;;;;5054512;28;20201;-83
2021/04/21 09:05:08;;;;;;;16.90;15.43;;;19.90;99.90;;;;;;5051568;28;20228;-80
2021/04/21 09:07:38;;;;;;;19.47;17.57;;;20.20;99.90;;;;;;5053747;28;20189;-80
2021/04/21 09:10:06;;;;;;;17.23;15.60;;;19.90;99.90;;;;;;5050427;28;20194;-77
2021/04/21 09:12:33;;;;;;;17.77;16.17;;;20.10;99.90;;;;;;5049258;28;20218;-77
2021/04/21 09:14:59;;;;;;;18.40;16.70;;;20.50;99.90;;;;;;5051872;28;20733;-78
2021/04/21 09:17:25;;;;;;;17.87;16.27;;;20.50;99.90;;;;;;5048520;28;20275;-77
2021/04/21 09:19:52;;;;;;;19.93;18.03;;;20.80;99.50;;;;;;5051965;28;20197;-78
2021/04/21 09:22:20;;;;;;;18.50;16.80;;;20.50;95.40;;;;;;5043808;28;20256;-79
2021/04/21 09:24:56;;;;;;;17.90;16.17;;;20.10;98.10;;;;;;5048151;28;20280;-77
2021/04/21 09:27:25;;;;;;;17.27;15.67;;;20.10;97.50;;;;;;5050302;28;20197;-78
2021/04/21 09:30:10;;;;;;;20.70;18.67;;;20.30;96.90;;;;;;5049763;28;20202;-77
2021/04/21 09:32:44;;;;;;;19.97;18.17;;;20.10;98.00;;;;;;5052074;28;20201;-80
2021/04/21 09:35:15;;;;;;;17.47;15.87;;;20.30;98.40;;;;;;5052558;28;20224;-80
2021/04/21 09:37:42;;;;;;;17.33;15.67;;;20.50;97.10;;;;;;5052676;28;20220;-80
2021/04/21 09:40:11;;;;;;;16.83;15.17;;;20.50;96.70;;;;;;5053158;28;20668;-80
2021/04/21 09:42:39;;;;;;;14.87;13.67;;;20.50;96.10;;;;;;5052771;28;20205;-80
2021/04/21 09:45:07;;;;;;;16.80;15.30;;;20.80;95.80;;;;;;5051974;28;20224;-80
2021/04/21 09:47:34;;;;;;;19.47;17.47;;;20.70;94.60;;;;;;5052292;28;20208;-80
2021/04/21 09:50:00;;;;;;;17.40;15.67;;;20.40;96.70;;;;;;5068683;28;20208;-80
2021/04/21 09:52:28;;;;;;;16.23;14.83;;;20.70;95.90;;;;;;5052250;28;20233;-81
2021/04/21 09:54:56;;;;;;;16.40;14.80;;;20.70;93.90;;;;;;5053293;28;20785;-80
2021/04/21 09:57:25;;;;;;;18.50;16.67;;;20.60;95.20;;;;;;5054431;28;20577;-80
2021/04/21 09:59:57;;;;;;;18.80;17.10;;;20.60;96.20;;;;;;5052476;28;20202;-80
2021/04/21 10:02:34;;;;;;;15.97;14.57;;;20.60;95.60;;;;;;5054219;28;20196;-80
2021/04/21 10:05:26;;;;;;;16.77;15.27;;;20.80;95.20;;;;;;5052134;28;20225;-80
2021/04/21 10:08:12;;;;;;;14.37;13.07;;;20.40;94.20;;;;;;5053908;28;20223;-80
2021/04/21 10:10:40;;;;;;;13.83;12.53;;;20.50;89.20;;;;;;5052175;28;20563;-80
2021/04/21 10:13:15;;;;;;;14.07;12.77;;;20.40;92.70;;;;;;5052848;28;20708;-80
2021/04/21 10:15:43;;;;;;;14.43;13.03;;;20.10;92.30;;;;;;5051166;28;20212;-80
2021/04/21 10:18:11;;;;;;;12.63;11.43;;;19.90;92.20;;;;;;5052786;28;20685;-79
2021/04/21 10:20:38;;;;;;;11.30;10.30;;;19.60;85.30;;;;;;5051261;28;20222;-80
2021/04/21 10:23:07;;;;;;;11.53;10.43;;;19.50;88.90;;;;;;5051676;28;20198;-80
2021/04/21 10:25:34;;;;;;;13.27;12.00;;;19.60;90.20;;;;;;5051930;28;20598;-80
2021/04/21 10:28:01;;;;;;;12.50;11.30;;;19.30;89.40;;;;;;5051414;28;20202;-80
2021/04/21 10:30:27;;;;;;;12.63;11.43;;;19.30;90.00;;;;;;5051275;28;20203;-80
2021/04/21 10:32:55;;;;;;;11.50;10.50;;;19.10;89.10;;;;;;5053023;28;20195;-80
2021/04/21 10:35:21;;;;;;;11.50;10.50;;;19.20;90.70;;;;;;5050996;28;20711;-79
2021/04/21 10:37:48;;;;;;;11.53;10.53;;;19.20;89.40;;;;;;5052424;28;20568;-80
2021/04/21 10:40:25;;;;;;;11.33;10.23;;;19.20;90.00;;;;;;5046667;28;20230;-79
2021/04/21 10:42:53;;;;;;;13.40;12.27;;;19.10;90.60;;;;;;5051682;28;20670;-81
2021/04/21 10:45:21;;;;;;;12.03;10.93;;;18.90;90.40;;;;;;5045437;28;20235;-80
2021/04/21 10:47:48;;;;;;;13.07;11.80;;;18.80;91.50;;;;;;5053060;28;20252;-79
2021/04/21 10:50:34;;;;;;;14.80;13.37;;;18.70;91.80;;;;;;5050110;28;20199;-81
2021/04/21 10:53:00;;;;;;;12.77;11.67;;;18.50;91.50;;;;;;5045365;28;20205;-79
2021/04/21 10:55:39;;;;;;;12.13;11.00;;;18.50;92.10;;;;;;5044814;28;20234;-79
2021/04/21 10:58:09;;;;;;;12.87;11.77;;;18.70;92.40;;;;;;5043740;28;20221;-79
2021/04/21 11:00:38;;;;;;;14.20;12.93;;;18.80;92.60;;;;;;5046220;28;20196;-78
2021/04/21 11:03:10;;;;;;;13.70;12.40;;;18.70;91.30;;;;;;5043256;28;20217;-79
2021/04/21 11:05:46;;;;;;;12.17;10.97;;;18.60;90.90;;;;;;5051617;28;20226;-78
2021/04/21 11:08:15;;;;;;;11.87;10.77;;;18.50;92.00;;;;;;5046339;28;20544;-78
2021/04/21 11:10:46;;;;;;;12.20;11.10;;;18.50;91.00;;;;;;5044756;28;20197;-78
2021/04/21 11:13:14;;;;;;;11.60;10.60;;;18.50;91.80;;;;;;5054236;28;20255;-78
2021/04/21 11:15:43;;;;;;;12.10;11.10;;;18.60;92.00;;;;;;5051790;28;20218;-78
2021/04/21 11:18:24;;;;;;;13.07;11.87;;;18.80;92.10;;;;;;5053054;28;20207;-78
2021/04/21 11:20:56;;;;;;;12.33;11.20;;;18.60;90.70;;;;;;5054229;28;20228;-78
2021/04/21 11:23:48;;;;;;;13.67;12.43;;;18.50;91.70;;;;;;5053478;28;20687;-78
2021/04/21 11:26:37;;;;;;;12.00;10.90;;;18.40;90.10;;;;;;5049030;28;20204;-78
2021/04/21 11:29:06;;;;;;;11.70;10.60;;;18.20;90.40;;;;;;5045299;28;20666;-79
2021/04/21 11:32:10;;;;;;;11.17;10.17;;;18.20;89.50;;;;;;5051682;28;20224;-78
2021/04/21 11:34:38;;;;;;;11.30;10.30;;;18.10;90.00;;;;;;5049498;28;20221;-78
2021/04/21 11:37:10;;;;;;;9.97;9.07;;;18.10;87.60;;;;;;5054009;28;20218;-78
2021/04/21 11:40:03;;;;;;;10.07;9.17;;;18.20;89.70;;;;;;5059476;28;20201;-79
2021/04/21 11:42:34;;;;;;;9.93;9.13;;;18.30;87.60;;;;;;5044334;28;20201;-78
2021/04/21 11:45:23;;;;;;;9.93;9.03;;;18.30;88.90;;;;;;5044884;28;20235;-79
2021/04/21 11:47:51;;;;;;;9.73;8.90;;;18.30;89.30;;;;;;5047575;28;20197;-78
2021/04/21 11:50:26;;;;;;;9.27;8.47;;;18.30;86.00;;;;;;5045474;28;20233;-79
2021/04/21 11:53:00;;;;;;;9.47;8.57;;;18.50;86.80;;;;;;5057855;28;20189;-78
2021/04/21 11:55:33;;;;;;;9.30;8.50;;;18.50;86.00;;;;;;5054685;28;20331;-78
2021/04/21 11:58:03;;;;;;;8.73;7.90;;;18.50;84.70;;;;;;5048506;28;20210;-79
2021/04/21 12:00:33;;;;;;;8.43;7.70;;;18.30;79.20;;;;;;5054045;28;20225;-78
2021/04/21 12:03:01;;;;;;;8.63;7.83;;;18.20;79.50;;;;;;5056584;28;20201;-78
2021/04/21 12:05:30;;;;;;;8.10;7.40;;;18.30;83.20;;;;;;5056828;28;20234;-78
2021/04/21 12:07:59;;;;;;;7.30;6.80;;;18.40;83.50;;;;;;5048658;28;20187;-78
2021/04/21 12:10:30;;;;;;;8.37;7.67;;;18.60;84.00;;;;;;5052129;28;20201;-78
2021/04/21 12:13:11;;;;;;;9.50;8.50;;;18.40;80.90;;;;;;5046486;28;20661;-78
2021/04/21 12:15:38;;;;;;;8.90;8.17;;;18.20;81.30;;;;;;5054047;28;20217;-79
2021/04/21 12:18:05;;;;;;;9.10;8.30;;;18.20;83.40;;;;;;5046456;28;20220;-78
2021/04/21 12:20:32;;;;;;;9.30;8.50;;;18.20;83.00;;;;;;5046305;28;20284;-78
2021/04/21 12:23:00;;;;;;;9.27;8.47;;;18.20;85.20;;;;;;5052470;28;20189;-76
2021/04/21 12:25:28;;;;;;;9.47;8.57;;;18.30;82.90;;;;;;5048031;28;20225;-78
2021/04/21 12:27:57;;;;;;;9.07;8.27;;;18.30;83.90;;;;;;5057132;28;20289;-78
2021/04/21 12:30:28;;;;;;;9.80;9.00;;;18.20;81.80;;;;;;5058997;28;20308;-77
2021/04/21 12:32:54;;;;;;;9.03;8.23;;;18.20;81.60;;;;;;5057312;28;20199;-78
2021/04/21 12:35:23;;;;;;;9.77;9.00;;;18.20;82.20;;;;;;5047350;28;20213;-78
2021/04/21 12:37:57;;;;;;;9.33;8.50;;;18.10;82.30;;;;;;5055469;28;20222;-78
2021/04/21 12:40:27;;;;;;;9.83;9.00;;;18.20;80.70;;;;;;5051151;28;20716;-78
2021/04/21 12:43:10;;;;;;;8.43;7.73;;;18.20;82.00;;;;;;5054404;28;20250;-77
2021/04/21 12:45:36;;;;;;;8.27;7.57;;;18.30;83.20;;;;;;5054809;28;20252;-77
2021/04/21 12:48:22;;;;;;;9.90;9.00;;;18.40;82.50;;;;;;5053167;28;20260;-78
2021/04/21 12:50:49;;;;;;;9.20;8.40;;;18.50;82.20;;;;;;5049326;28;20582;-78
2021/04/21 12:53:18;;;;;;;9.80;8.80;;;18.40;81.60;;;;;;5046702;28;20199;-78
2021/04/21 12:55:45;;;;;;;8.87;8.07;;;18.50;80.80;;;;;;5054776;28;20417;-78
2021/04/21 12:58:12;;;;;;;9.77;8.47;;;18.40;80.90;;;;;;5056666;28;20201;-78
2021/04/21 13:00:39;;;;;;;10.27;8.80;;;18.50;81.00;;;;;;5052801;28;20591;-78